Nakkehoved, Denmark

12:02 PM CEST on May 27, 2015 (GMT +0200)
IHOVEDST4 | | Change Station
CLOSE
Current Station
Personal Weather Station
Location: Gilleleje, HOVEDSTADEN
Elevation: 20 ft
Nearby Weather Stations

Elev 20 ft 56.12 °N, 12.31 °E | Updated 4 minutes ago

Mostly Cloudy
Mostly Cloudy
51.7 °F
Feels Like 51.7 °F
N
14.0
Wind Variable Wind from WNW
Gusts 20.0 mph

Today
High -- | Low -- °F
--% Chance of Precip.
Yesterday
High -- | Low -- °F
Precip. -- in
4:38 AM 9:38 PM
Waxing Gibbous, 66% visible
Pressure 29.98 in
Visibility 6.2 miles
Clouds Few 2300 ft
Mostly Cloudy 3600 ft
Dew Point 45 °F
Humidity 79%
Rainfall 0.00 in
Snow Depth Not available.
UV 5 out of 12
Pollen Not available.
Air Quality Not available.
Flu Activity Not available.
METAR ESTA 270950Z 27019KT 9999 FEW023 BKN036 12/07 Q1015

More Conditions Fewer Conditions

Pressure 29.98 in
Visibility 6.2 miles
Clouds Few 2300 ft
Mostly Cloudy 3600 ft
Dew Point 45 °F
Humidity 79%
Rainfall 0.00 in
Snow Depth Not available.
UV 5 out of 12
Pollen Not available.
Air Quality Not available.
Flu Activity Not available.
METAR ESTA 270950Z 27019KT 9999 FEW023 BKN036 12/07 Q1015

More Conditions Fewer Conditions

10-Day Weather Forecast

Almanac

Astronomy

May. 27, 2015 Rise Set
Actual Time
Civil Twilight
Nautical Twilight
Astronomical Twilight
Moon
Length of Visible Light
Length of Day
Tomorrow will be .
, % of the Moon is Illuminated

Today's Extremes

Country Highs Country Lows

Community

WunderPhotos

Upload Photos

1,824,635 photos uploaded!

WunderBlogs® & News

Nearby

Air Quality

  Air Quality AQ Index Pollutant
Not available.

Snow Depth

Station Depth Elevation

Earthquake Activity

City Distance Mag. Time & Date
Minimum magnitude displayed is 2.5.

Coastal Water Temperatures

Place Temperature

Stations

Nearby Weather Stations

Station Location Temp. Windchill Dew Point Humidity Wind Precip. Elev Updated Type